sensor_id;sensor_type;location;lat;lon;timestamp;pressure;altitude;pressure_sealevel;temperature;humidity
9538;BME280;4807;48.024;11.726;2023-11-21T00:02:29;94510.69;;;5.18;88.13
9538;BME280;4807;48.024;11.726;2023-11-21T00:05:37;94501.25;;;5.53;86.58
9538;BME280;4807;48.024;11.726;2023-11-21T00:08:49;94494.53;;;5.50;86.18
9538;BME280;4807;48.024;11.726;2023-11-21T00:11:58;94498.00;;;5.65;87.46
9538;BME280;4807;48.024;11.726;2023-11-21T00:15:08;94494.34;;;5.66;87.97
9538;BME280;4807;48.024;11.726;2023-11-21T00:18:18;94489.09;;;5.96;86.85
9538;BME280;4807;48.024;11.726;2023-11-21T00:21:26;94487.97;;;6.05;86.09
9538;BME280;4807;48.024;11.726;2023-11-21T00:24:36;94483.34;;;6.07;85.95
9538;BME280;4807;48.024;11.726;2023-11-21T00:27:44;94482.03;;;6.18;85.87
9538;BME280;4807;48.024;11.726;2023-11-21T00:30:53;94473.75;;;6.21;84.77
9538;BME280;4807;48.024;11.726;2023-11-21T00:34:02;94474.59;;;6.06;85.36
9538;BME280;4807;48.024;11.726;2023-11-21T00:37:14;94476.22;;;5.78;86.98
9538;BME280;4807;48.024;11.726;2023-11-21T00:40:26;94478.59;;;5.73;87.59
9538;BME280;4807;48.024;11.726;2023-11-21T00:43:34;94481.41;;;5.71;87.80
9538;BME280;4807;48.024;11.726;2023-11-21T00:46:43;94471.84;;;5.70;88.83
9538;BME280;4807;48.024;11.726;2023-11-21T00:49:51;94477.22;;;5.62;89.87
9538;BME280;4807;48.024;11.726;2023-11-21T00:52:59;94472.03;;;5.69;89.13
9538;BME280;4807;48.024;11.726;2023-11-21T00:56:10;94463.75;;;5.72;89.23
9538;BME280;4807;48.024;11.726;2023-11-21T00:59:18;94468.84;;;5.73;88.90
9538;BME280;4807;48.024;11.726;2023-11-21T01:02:27;94470.56;;;5.81;88.79
9538;BME280;4807;48.024;11.726;2023-11-21T01:05:36;94459.19;;;5.81;89.13
9538;BME280;4807;48.024;11.726;2023-11-21T01:08:45;94464.13;;;5.84;88.80
9538;BME280;4807;48.024;11.726;2023-11-21T01:11:54;94461.09;;;5.87;88.51
9538;BME280;4807;48.024;11.726;2023-11-21T01:15:05;94462.03;;;5.94;88.37
9538;BME280;4807;48.024;11.726;2023-11-21T01:18:15;94457.72;;;5.93;88.55
9538;BME280;4807;48.024;11.726;2023-11-21T01:21:24;94460.59;;;5.91;88.34
9538;BME280;4807;48.024;11.726;2023-11-21T01:27:42;94457.47;;;5.58;88.77
9538;BME280;4807;48.024;11.726;2023-11-21T01:30:51;94458.81;;;5.54;88.95
9538;BME280;4807;48.024;11.726;2023-11-21T01:34:00;94466.50;;;5.49;89.57
9538;BME280;4807;48.024;11.726;2023-11-21T01:37:08;94463.66;;;5.51;89.86
9538;BME280;4807;48.024;11.726;2023-11-21T01:40:19;94452.72;;;5.54;89.66
9538;BME280;4807;48.024;11.726;2023-11-21T01:43:29;94455.47;;;5.46;89.48
9538;BME280;4807;48.024;11.726;2023-11-21T01:46:40;94457.00;;;5.40;89.89
9538;BME280;4807;48.024;11.726;2023-11-21T01:49:49;94453.38;;;5.41;89.78
9538;BME280;4807;48.024;11.726;2023-11-21T01:52:58;94452.00;;;5.45;90.30
9538;BME280;4807;48.024;11.726;2023-11-21T01:56:08;94455.38;;;5.54;90.15
9538;BME280;4807;48.024;11.726;2023-11-21T01:59:21;94459.28;;;5.58;89.51
9538;BME280;4807;48.024;11.726;2023-11-21T02:02:29;94458.38;;;5.65;88.56
9538;BME280;4807;48.024;11.726;2023-11-21T02:05:38;94446.19;;;5.64;88.54
9538;BME280;4807;48.024;11.726;2023-11-21T02:08:46;94443.97;;;5.53;89.30
9538;BME280;4807;48.024;11.726;2023-11-21T02:11:56;94451.91;;;5.68;88.77
9538;BME280;4807;48.024;11.726;2023-11-21T02:15:10;94444.09;;;5.74;88.54
9538;BME280;4807;48.024;11.726;2023-11-21T02:18:22;94445.34;;;5.79;88.75
9538;BME280;4807;48.024;11.726;2023-11-21T02:21:30;94448.09;;;6.00;87.11
9538;BME280;4807;48.024;11.726;2023-11-21T02:24:41;94432.59;;;5.97;87.80
9538;BME280;4807;48.024;11.726;2023-11-21T02:27:50;94445.63;;;5.84;87.90
9538;BME280;4807;48.024;11.726;2023-11-21T02:30:58;94445.25;;;5.87;88.10
9538;BME280;4807;48.024;11.726;2023-11-21T02:34:07;94448.88;;;5.86;88.84
9538;BME280;4807;48.024;11.726;2023-11-21T02:37:15;94454.47;;;5.91;89.00
9538;BME280;4807;48.024;11.726;2023-11-21T02:40:25;94443.25;;;6.03;88.04
9538;BME280;4807;48.024;11.726;2023-11-21T02:43:34;94442.41;;;6.03;88.11
9538;BME280;4807;48.024;11.726;2023-11-21T02:46:42;94442.41;;;6.03;88.08
9538;BME280;4807;48.024;11.726;2023-11-21T02:49:51;94446.84;;;6.17;87.32
9538;BME280;4807;48.024;11.726;2023-11-21T02:53:00;94448.00;;;6.29;87.70
9538;BME280;4807;48.024;11.726;2023-11-21T02:56:10;94445.25;;;6.37;86.75
9538;BME280;4807;48.024;11.726;2023-11-21T02:59:18;94446.50;;;6.41;86.03
9538;BME280;4807;48.024;11.726;2023-11-21T03:02:27;94454.94;;;6.30;88.05
9538;BME280;4807;48.024;11.726;2023-11-21T03:05:36;94461.97;;;6.23;88.52
9538;BME280;4807;48.024;11.726;2023-11-21T03:08:45;94458.53;;;6.23;89.51
9538;BME280;4807;48.024;11.726;2023-11-21T03:11:55;94454.16;;;6.15;89.47
9538;BME280;4807;48.024;11.726;2023-11-21T03:15:07;94447.94;;;6.23;89.18
9538;BME280;4807;48.024;11.726;2023-11-21T03:18:16;94443.97;;;6.33;88.50
9538;BME280;4807;48.024;11.726;2023-11-21T03:21:25;94442.72;;;6.29;89.80
9538;BME280;4807;48.024;11.726;2023-11-21T03:24:34;94434.16;;;6.27;90.04
9538;BME280;4807;48.024;11.726;2023-11-21T03:27:43;94437.56;;;6.21;90.64
9538;BME280;4807;48.024;11.726;2023-11-21T03:30:52;94428.44;;;6.24;91.66
9538;BME280;4807;48.024;11.726;2023-11-21T03:34:00;94427.50;;;6.31;91.55
9538;BME280;4807;48.024;11.726;2023-11-21T03:37:08;94435.44;;;6.31;91.66
9538;BME280;4807;48.024;11.726;2023-11-21T03:40:17;94439.50;;;6.34;91.26
9538;BME280;4807;48.024;11.726;2023-11-21T03:43:26;94439.44;;;6.27;92.19
9538;BME280;4807;48.024;11.726;2023-11-21T03:46:35;94435.91;;;6.41;91.28
9538;BME280;4807;48.024;11.726;2023-11-21T03:49:43;94434.69;;;6.37;91.73
9538;BME280;4807;48.024;11.726;2023-11-21T03:52:55;94436.88;;;6.34;91.19
9538;BME280;4807;48.024;11.726;2023-11-21T03:56:04;94433.91;;;6.43;90.86
9538;BME280;4807;48.024;11.726;2023-11-21T03:59:14;94429.91;;;6.47;91.43
9538;BME280;4807;48.024;11.726;2023-11-21T04:02:22;94426.25;;;6.48;89.92
9538;BME280;4807;48.024;11.726;2023-11-21T04:05:32;94429.03;;;6.40;90.85
9538;BME280;4807;48.024;11.726;2023-11-21T04:08:40;94418.56;;;6.54;90.39
9538;BME280;4807;48.024;11.726;2023-11-21T04:11:49;94421.84;;;6.56;90.13
9538;BME280;4807;48.024;11.726;2023-11-21T04:14:59;94431.16;;;6.51;90.56
9538;BME280;4807;48.024;11.726;2023-11-21T04:18:07;94427.81;;;6.43;91.38
9538;BME280;4807;48.024;11.726;2023-11-21T04:21:16;94429.44;;;6.44;91.16
9538;BME280;4807;48.024;11.726;2023-11-21T04:24:24;94434.63;;;6.52;91.41
9538;BME280;4807;48.024;11.726;2023-11-21T04:27:32;94438.44;;;6.49;90.63
9538;BME280;4807;48.024;11.726;2023-11-21T04:30:43;94425.63;;;6.46;91.07
9538;BME280;4807;48.024;11.726;2023-11-21T04:33:51;94434.38;;;6.47;91.81
9538;BME280;4807;48.024;11.726;2023-11-21T04:36:59;94428.38;;;6.60;91.79
9538;BME280;4807;48.024;11.726;2023-11-21T04:40:09;94433.66;;;6.60;90.98
9538;BME280;4807;48.024;11.726;2023-11-21T04:43:18;94435.50;;;6.59;90.96
9538;BME280;4807;48.024;11.726;2023-11-21T04:46:28;94430.03;;;6.61;90.29
9538;BME280;4807;48.024;11.726;2023-11-21T04:49:36;94435.81;;;6.49;90.93
9538;BME280;4807;48.024;11.726;2023-11-21T04:52:45;94435.81;;;6.49;91.59
9538;BME280;4807;48.024;11.726;2023-11-21T04:55:54;94433.91;;;6.43;92.11
9538;BME280;4807;48.024;11.726;2023-11-21T04:59:03;94439.84;;;6.45;92.48
9538;BME280;4807;48.024;11.726;2023-11-21T05:02:13;94441.47;;;6.46;92.03
9538;BME280;4807;48.024;11.726;2023-11-21T05:05:39;94442.25;;;6.40;92.20
9538;BME280;4807;48.024;11.726;2023-11-21T05:08:48;94447.91;;;6.37;92.49
9538;BME280;4807;48.024;11.726;2023-11-21T05:11:58;94451.06;;;6.47;92.24
9538;BME280;4807;48.024;11.726;2023-11-21T05:15:08;94447.41;;;6.48;91.51
9538;BME280;4807;48.024;11.726;2023-11-21T05:18:19;94447.03;;;6.51;91.60
9538;BME280;4807;48.024;11.726;2023-11-21T05:21:27;94445.25;;;6.37;91.24
9538;BME280;4807;48.024;11.726;2023-11-21T05:24:36;94449.34;;;6.40;91.67
9538;BME280;4807;48.024;11.726;2023-11-21T05:27:46;94438.97;;;6.38;91.29
9538;BME280;4807;48.024;11.726;2023-11-21T05:30:56;94440.97;;;6.36;92.14
9538;BME280;4807;48.024;11.726;2023-11-21T05:34:23;94435.78;;;6.28;92.08
9538;BME280;4807;48.024;11.726;2023-11-21T05:37:31;94439.91;;;6.31;92.10
9538;BME280;4807;48.024;11.726;2023-11-21T05:40:40;94442.09;;;6.27;92.53
9538;BME280;4807;48.024;11.726;2023-11-21T05:43:48;94443.47;;;6.23;92.97
9538;BME280;4807;48.024;11.726;2023-11-21T05:46:56;94442.28;;;6.26;92.42
9538;BME280;4807;48.024;11.726;2023-11-21T05:50:11;94446.66;;;6.19;92.81
9538;BME280;4807;48.024;11.726;2023-11-21T05:53:21;94456.72;;;6.08;92.92
9538;BME280;4807;48.024;11.726;2023-11-21T05:56:31;94456.69;;;6.23;93.09
9538;BME280;4807;48.024;11.726;2023-11-21T05:59:39;94463.06;;;6.29;92.84
9538;BME280;4807;48.024;11.726;2023-11-21T06:02:48;94471.16;;;6.27;92.82
9538;BME280;4807;48.024;11.726;2023-11-21T06:05:59;94463.00;;;6.22;93.43
9538;BME280;4807;48.024;11.726;2023-11-21T06:09:07;94466.88;;;6.26;93.23
9538;BME280;4807;48.024;11.726;2023-11-21T06:12:16;94468.28;;;6.22;94.26
9538;BME280;4807;48.024;11.726;2023-11-21T06:15:24;94468.28;;;6.22;94.32
9538;BME280;4807;48.024;11.726;2023-11-21T06:18:32;94474.38;;;6.23;94.53
9538;BME280;4807;48.024;11.726;2023-11-21T06:21:45;94478.47;;;6.25;94.93
9538;BME280;4807;48.024;11.726;2023-11-21T06:24:54;94477.84;;;6.23;94.98
9538;BME280;4807;48.024;11.726;2023-11-21T06:28:02;94479.03;;;6.21;95.34
9538;BME280;4807;48.024;11.726;2023-11-21T06:31:13;94485.13;;;6.21;94.92
9538;BME280;4807;48.024;11.726;2023-11-21T06:34:21;94495.25;;;6.32;94.65
9538;BME280;4807;48.024;11.726;2023-11-21T06:37:32;94495.75;;;6.42;93.94
9538;BME280;4807;48.024;11.726;2023-11-21T06:40:40;94502.66;;;6.43;94.21
9538;BME280;4807;48.024;11.726;2023-11-21T06:43:49;94500.97;;;6.36;94.47
9538;BME280;4807;48.024;11.726;2023-11-21T06:46:57;94496.13;;;6.39;94.31
9538;BME280;4807;48.024;11.726;2023-11-21T06:50:06;94503.94;;;6.47;94.17
9538;BME280;4807;48.024;11.726;2023-11-21T06:53:16;94509.84;;;6.49;93.83
9538;BME280;4807;48.024;11.726;2023-11-21T06:56:24;94507.66;;;6.53;94.03
9538;BME280;4807;48.024;11.726;2023-11-21T06:59:35;94515.41;;;6.55;94.01
9538;BME280;4807;48.024;11.726;2023-11-21T07:02:44;94511.66;;;6.64;93.54
9538;BME280;4807;48.024;11.726;2023-11-21T07:05:52;94510.38;;;6.60;92.97
9538;BME280;4807;48.024;11.726;2023-11-21T07:09:02;94520.19;;;6.66;93.52
9538;BME280;4807;48.024;11.726;2023-11-21T07:12:12;94514.19;;;6.72;92.93
9538;BME280;4807;48.024;11.726;2023-11-21T07:15:21;94525.91;;;6.84;93.00
9538;BME280;4807;48.024;11.726;2023-11-21T07:18:29;94525.91;;;6.84;92.73
9538;BME280;4807;48.024;11.726;2023-11-21T07:21:38;94520.59;;;6.84;92.39
9538;BME280;4807;48.024;11.726;2023-11-21T07:24:50;94528.81;;;6.89;91.76
9538;BME280;4807;48.024;11.726;2023-11-21T07:27:58;94526.78;;;6.91;92.10
9538;BME280;4807;48.024;11.726;2023-11-21T07:31:06;94531.81;;;6.86;92.75
9538;BME280;4807;48.024;11.726;2023-11-21T07:34:15;94533.72;;;6.92;92.07
9538;BME280;4807;48.024;11.726;2023-11-21T07:37:23;94539.41;;;6.89;91.97
9538;BME280;4807;48.024;11.726;2023-11-21T07:40:32;94542.53;;;6.99;91.24
9538;BME280;4807;48.024;11.726;2023-11-21T07:43:41;94547.94;;;6.91;92.04
9538;BME280;4807;48.024;11.726;2023-11-21T07:46:49;94544.69;;;6.89;91.85
9538;BME280;4807;48.024;11.726;2023-11-21T07:49:58;94551.09;;;6.80;92.94
9538;BME280;4807;48.024;11.726;2023-11-21T07:53:06;94544.28;;;6.92;92.25
9538;BME280;4807;48.024;11.726;2023-11-21T07:56:16;94541.53;;;7.00;92.37
9538;BME280;4807;48.024;11.726;2023-11-21T07:59:25;94535.22;;;7.22;90.54
9538;BME280;4807;48.024;11.726;2023-11-21T08:02:33;94534.38;;;7.22;90.65
9538;BME280;4807;48.024;11.726;2023-11-21T08:05:41;94528.34;;;7.28;91.38
9538;BME280;4807;48.024;11.726;2023-11-21T08:08:50;94533.69;;;7.35;90.69
9538;BME280;4807;48.024;11.726;2023-11-21T08:12:00;94532.06;;;7.34;90.17
9538;BME280;4807;48.024;11.726;2023-11-21T08:15:10;94531.75;;;7.43;89.95
9538;BME280;4807;48.024;11.726;2023-11-21T08:18:19;94534.44;;;7.50;90.50
9538;BME280;4807;48.024;11.726;2023-11-21T08:21:27;94534.06;;;7.53;89.99
9538;BME280;4807;48.024;11.726;2023-11-21T08:24:36;94535.56;;;7.62;89.64
9538;BME280;4807;48.024;11.726;2023-11-21T08:27:46;94538.06;;;7.70;88.96
9538;BME280;4807;48.024;11.726;2023-11-21T08:30:55;94532.69;;;7.91;88.80
9538;BME280;4807;48.024;11.726;2023-11-21T08:34:03;94530.88;;;7.98;87.42
9538;BME280;4807;48.024;11.726;2023-11-21T08:37:14;94532.50;;;7.93;87.24
9538;BME280;4807;48.024;11.726;2023-11-21T08:40:22;94531.72;;;7.99;86.05
9538;BME280;4807;48.024;11.726;2023-11-21T08:43:34;94525.44;;;8.07;86.84
9538;BME280;4807;48.024;11.726;2023-11-21T08:46:43;94524.44;;;8.08;86.00
9538;BME280;4807;48.024;11.726;2023-11-21T08:49:52;94526.44;;;8.05;84.69
9538;BME280;4807;48.024;11.726;2023-11-21T08:53:01;94525.66;;;8.12;85.20
9538;BME280;4807;48.024;11.726;2023-11-21T08:56:12;94530.19;;;8.18;85.51
9538;BME280;4807;48.024;11.726;2023-11-21T08:59:22;94536.50;;;8.17;84.48
9538;BME280;4807;48.024;11.726;2023-11-21T09:02:31;94544.53;;;7.95;85.11
9538;BME280;4807;48.024;11.726;2023-11-21T09:05:41;94545.72;;;7.86;84.94
9538;BME280;4807;48.024;11.726;2023-11-21T09:08:49;94553.25;;;7.89;85.55
9538;BME280;4807;48.024;11.726;2023-11-21T09:11:57;94557.22;;;8.00;85.62
9538;BME280;4807;48.024;11.726;2023-11-21T09:15:11;94556.31;;;8.21;85.29
9538;BME280;4807;48.024;11.726;2023-11-21T09:18:19;94560.84;;;8.27;84.30
9538;BME280;4807;48.024;11.726;2023-11-21T09:21:27;94565.91;;;8.22;83.50
9538;BME280;4807;48.024;11.726;2023-11-21T09:24:36;94573.69;;;8.30;83.67
9538;BME280;4807;48.024;11.726;2023-11-21T09:27:46;94576.09;;;8.53;83.05
9538;BME280;4807;48.024;11.726;2023-11-21T09:30:56;94582.66;;;8.57;82.38
9538;BME280;4807;48.024;11.726;2023-11-21T09:34:05;94581.44;;;8.59;82.31
9538;BME280;4807;48.024;11.726;2023-11-21T09:37:14;94579.81;;;8.65;82.24
9538;BME280;4807;48.024;11.726;2023-11-21T09:40:23;94577.19;;;8.71;81.88
9538;BME280;4807;48.024;11.726;2023-11-21T09:43:32;94578.88;;;8.86;81.45
9538;BME280;4807;48.024;11.726;2023-11-21T09:46:44;94583.50;;;8.70;80.86
9538;BME280;4807;48.024;11.726;2023-11-21T09:49:57;94583.50;;;8.64;81.57
9538;BME280;4807;48.024;11.726;2023-11-21T09:53:15;94583.06;;;8.60;82.06
9538;BME280;4807;48.024;11.726;2023-11-21T09:56:28;94577.16;;;8.58;81.82
9538;BME280;4807;48.024;11.726;2023-11-21T09:59:37;94580.03;;;8.63;82.04
9538;BME280;4807;48.024;11.726;2023-11-21T10:02:47;94572.41;;;8.47;81.72
9538;BME280;4807;48.024;11.726;2023-11-21T10:05:57;94568.50;;;8.43;82.79
9538;BME280;4807;48.024;11.726;2023-11-21T10:09:10;94570.28;;;8.36;83.15
9538;BME280;4807;48.024;11.726;2023-11-21T10:12:24;94573.22;;;8.48;81.91
9538;BME280;4807;48.024;11.726;2023-11-21T10:15:34;94571.22;;;8.56;82.59
9538;BME280;4807;48.024;11.726;2023-11-21T10:18:44;94560.91;;;8.88;82.26
9538;BME280;4807;48.024;11.726;2023-11-21T10:21:53;94567.88;;;9.02;81.61
9538;BME280;4807;48.024;11.726;2023-11-21T10:25:03;94571.16;;;8.97;80.16
9538;BME280;4807;48.024;11.726;2023-11-21T10:28:14;94565.22;;;8.89;81.15
9538;BME280;4807;48.024;11.726;2023-11-21T10:31:23;94574.69;;;9.24;81.28
9538;BME280;4807;48.024;11.726;2023-11-21T10:34:33;94571.66;;;9.60;79.44
9538;BME280;4807;48.024;11.726;2023-11-21T10:37:42;94567.19;;;9.80;76.55
9538;BME280;4807;48.024;11.726;2023-11-21T10:40:51;94569.38;;;10.16;76.45
9538;BME280;4807;48.024;11.726;2023-11-21T10:44:02;94568.72;;;10.47;75.51
9538;BME280;4807;48.024;11.726;2023-11-21T10:47:11;94571.03;;;10.04;75.81
9538;BME280;4807;48.024;11.726;2023-11-21T10:50:23;94565.72;;;9.58;76.54
9538;BME280;4807;48.024;11.726;2023-11-21T10:53:33;94571.34;;;8.96;78.02
9538;BME280;4807;48.024;11.726;2023-11-21T10:56:42;94572.81;;;9.11;77.98
9538;BME280;4807;48.024;11.726;2023-11-21T10:59:54;94575.97;;;8.67;79.65
9538;BME280;4807;48.024;11.726;2023-11-21T11:03:03;94579.03;;;8.71;80.29
9538;BME280;4807;48.024;11.726;2023-11-21T11:06:14;94569.06;;;8.79;79.82
9538;BME280;4807;48.024;11.726;2023-11-21T11:09:22;94578.09;;;8.98;79.38
9538;BME280;4807;48.024;11.726;2023-11-21T11:12:31;94575.50;;;9.18;77.49
9538;BME280;4807;48.024;11.726;2023-11-21T11:15:39;94563.69;;;9.53;76.97
9538;BME280;4807;48.024;11.726;2023-11-21T11:18:48;94575.31;;;9.99;75.56
9538;BME280;4807;48.024;11.726;2023-11-21T11:22:10;94576.56;;;9.83;75.48
9538;BME280;4807;48.024;11.726;2023-11-21T11:25:53;94571.25;;;9.83;73.63
9538;BME280;4807;48.024;11.726;2023-11-21T11:29:18;94566.97;;;10.21;74.86
9538;BME280;4807;48.024;11.726;2023-11-21T11:32:42;94571.44;;;10.27;74.34
9538;BME280;4807;48.024;11.726;2023-11-21T11:36:00;94568.81;;;9.88;75.51
9538;BME280;4807;48.024;11.726;2023-11-21T11:39:29;94563.44;;;10.08;75.45
9538;BME280;4807;48.024;11.726;2023-11-21T11:42:41;94565.28;;;10.14;75.21
9538;BME280;4807;48.024;11.726;2023-11-21T11:46:03;94564.88;;;10.10;74.56
9538;BME280;4807;48.024;11.726;2023-11-21T11:49:23;94554.88;;;10.25;75.03
9538;BME280;4807;48.024;11.726;2023-11-21T11:52:34;94542.59;;;10.11;74.86
9538;BME280;4807;48.024;11.726;2023-11-21T11:55:44;94546.53;;;9.69;74.54
9538;BME280;4807;48.024;11.726;2023-11-21T11:58:54;94555.31;;;9.70;76.40
9538;BME280;4807;48.024;11.726;2023-11-21T12:02:04;94555.88;;;9.98;76.25
9538;BME280;4807;48.024;11.726;2023-11-21T12:05:15;94558.59;;;9.72;76.00
9538;BME280;4807;48.024;11.726;2023-11-21T12:08:28;94548.53;;;9.93;76.95
9538;BME280;4807;48.024;11.726;2023-11-21T12:11:41;94544.88;;;9.88;75.72
9538;BME280;4807;48.024;11.726;2023-11-21T12:14:51;94541.41;;;9.54;76.50
9538;BME280;4807;48.024;11.726;2023-11-21T12:17:59;94556.13;;;9.64;75.73
9538;BME280;4807;48.024;11.726;2023-11-21T12:21:07;94554.69;;;9.68;77.30
9538;BME280;4807;48.024;11.726;2023-11-21T12:24:17;94558.16;;;9.42;76.98
9538;BME280;4807;48.024;11.726;2023-11-21T12:27:27;94560.00;;;9.54;76.60
9538;BME280;4807;48.024;11.726;2023-11-21T12:30:36;94553.25;;;9.85;74.85
9538;BME280;4807;48.024;11.726;2023-11-21T12:33:46;94548.56;;;9.87;74.67
9538;BME280;4807;48.024;11.726;2023-11-21T12:36:54;94556.53;;;9.80;75.48
9538;BME280;4807;48.024;11.726;2023-11-21T12:40:05;94555.06;;;9.98;76.25
9538;BME280;4807;48.024;11.726;2023-11-21T12:43:15;94556.75;;;9.79;76.98
9538;BME280;4807;48.024;11.726;2023-11-21T12:46:25;94562.88;;;9.79;77.72
9538;BME280;4807;48.024;11.726;2023-11-21T12:49:37;94549.38;;;9.74;76.45
9538;BME280;4807;48.024;11.726;2023-11-21T12:52:46;94556.34;;;9.62;75.79
9538;BME280;4807;48.024;11.726;2023-11-21T12:55:56;94551.75;;;9.03;75.71
9538;BME280;4807;48.024;11.726;2023-11-21T12:59:06;94545.06;;;9.27;75.55
9538;BME280;4807;48.024;11.726;2023-11-21T13:02:19;94544.47;;;9.38;75.23
9538;BME280;4807;48.024;11.726;2023-11-21T13:05:30;94545.28;;;9.45;75.19
9538;BME280;4807;48.024;11.726;2023-11-21T13:08:38;94552.88;;;9.55;75.25
9538;BME280;4807;48.024;11.726;2023-11-21T13:11:47;94551.41;;;9.52;75.62
9538;BME280;4807;48.024;11.726;2023-11-21T13:15:03;94550.41;;;9.53;75.62
9538;BME280;4807;48.024;11.726;2023-11-21T13:18:13;94556.69;;;9.06;76.44
9538;BME280;4807;48.024;11.726;2023-11-21T13:21:22;94550.09;;;8.83;78.32
9538;BME280;4807;48.024;11.726;2023-11-21T13:24:32;94566.38;;;8.66;77.19
9538;BME280;4807;48.024;11.726;2023-11-21T13:27:41;94561.44;;;8.63;75.54
9538;BME280;4807;48.024;11.726;2023-11-21T13:30:51;94558.97;;;8.55;76.27
9538;BME280;4807;48.024;11.726;2023-11-21T13:34:00;94569.78;;;8.60;77.49
9538;BME280;4807;48.024;11.726;2023-11-21T13:37:12;94572.44;;;8.60;77.08
9538;BME280;4807;48.024;11.726;2023-11-21T13:40:22;94573.59;;;8.45;78.30
9538;BME280;4807;48.024;11.726;2023-11-21T13:43:33;94579.28;;;8.35;78.71
9538;BME280;4807;48.024;11.726;2023-11-21T13:46:45;94585.28;;;8.50;79.68
9538;BME280;4807;48.024;11.726;2023-11-21T13:49:54;94580.56;;;8.52;80.51
9538;BME280;4807;48.024;11.726;2023-11-21T13:53:02;94598.50;;;7.88;82.33
9538;BME280;4807;48.024;11.726;2023-11-21T13:56:17;94596.25;;;7.36;81.57
9538;BME280;4807;48.024;11.726;2023-11-21T13:59:29;94602.81;;;7.18;83.48
9538;BME280;4807;48.024;11.726;2023-11-21T14:02:40;94599.81;;;7.07;86.26
9538;BME280;4807;48.024;11.726;2023-11-21T14:05:51;94613.56;;;7.17;86.61
9538;BME280;4807;48.024;11.726;2023-11-21T14:08:59;94612.69;;;7.31;88.42
9538;BME280;4807;48.024;11.726;2023-11-21T14:12:12;94610.13;;;7.59;87.70
9538;BME280;4807;48.024;11.726;2023-11-21T14:15:23;94606.22;;;7.83;87.15
9538;BME280;4807;48.024;11.726;2023-11-21T14:18:33;94615.75;;;8.05;85.20
9538;BME280;4807;48.024;11.726;2023-11-21T14:21:47;94616.91;;;8.24;84.50
9538;BME280;4807;48.024;11.726;2023-11-21T14:24:56;94613.88;;;8.27;83.61
9538;BME280;4807;48.024;11.726;2023-11-21T14:28:07;94610.19;;;8.28;82.91
9538;BME280;4807;48.024;11.726;2023-11-21T14:31:15;94620.47;;;8.31;83.17
9538;BME280;4807;48.024;11.726;2023-11-21T14:34:25;94613.13;;;8.33;82.25
9538;BME280;4807;48.024;11.726;2023-11-21T14:37:34;94616.06;;;8.17;82.98
9538;BME280;4807;48.024;11.726;2023-11-21T14:40:43;94618.59;;;8.03;83.93
9538;BME280;4807;48.024;11.726;2023-11-21T14:43:51;94628.75;;;7.93;84.54
9538;BME280;4807;48.024;11.726;2023-11-21T14:47:01;94627.09;;;7.92;85.22
9538;BME280;4807;48.024;11.726;2023-11-21T14:50:15;94644.41;;;7.67;87.74
9538;BME280;4807;48.024;11.726;2023-11-21T14:53:41;94647.34;;;7.30;87.33
9538;BME280;4807;48.024;11.726;2023-11-21T14:57:00;94653.97;;;7.04;88.03
9538;BME280;4807;48.024;11.726;2023-11-21T15:00:11;94655.63;;;7.05;88.41
9538;BME280;4807;48.024;11.726;2023-11-21T15:03:38;94661.34;;;7.09;88.04
9538;BME280;4807;48.024;11.726;2023-11-21T15:06:58;94656.13;;;7.15;88.86
9538;BME280;4807;48.024;11.726;2023-11-21T15:10:07;94664.69;;;7.17;88.41
9538;BME280;4807;48.024;11.726;2023-11-21T15:13:20;94661.69;;;7.20;87.49
9538;BME280;4807;48.024;11.726;2023-11-21T15:16:31;94662.63;;;7.13;87.23
9538;BME280;4807;48.024;11.726;2023-11-21T15:19:39;94658.53;;;7.10;88.53
9538;BME280;4807;48.024;11.726;2023-11-21T15:22:50;94664.38;;;6.91;89.18
9538;BME280;4807;48.024;11.726;2023-11-21T15:26:02;94662.03;;;6.81;90.05
9538;BME280;4807;48.024;11.726;2023-11-21T15:29:11;94655.56;;;6.69;90.91
9538;BME280;4807;48.024;11.726;2023-11-21T15:32:21;94656.66;;;6.75;91.37
9538;BME280;4807;48.024;11.726;2023-11-21T15:35:30;94648.22;;;6.65;92.17
9538;BME280;4807;48.024;11.726;2023-11-21T15:38:41;94657.16;;;6.64;91.89
9538;BME280;4807;48.024;11.726;2023-11-21T15:41:49;94657.50;;;6.61;92.54
9538;BME280;4807;48.024;11.726;2023-11-21T15:44:59;94663.06;;;6.66;92.20
9538;BME280;4807;48.024;11.726;2023-11-21T15:48:07;94666.34;;;6.68;91.96
9538;BME280;4807;48.024;11.726;2023-11-21T15:51:17;94665.34;;;6.69;92.13
9538;BME280;4807;48.024;11.726;2023-11-21T15:54:27;94668.88;;;6.76;91.01
9538;BME280;4807;48.024;11.726;2023-11-21T15:57:36;94682.19;;;6.82;90.51
9538;BME280;4807;48.024;11.726;2023-11-21T16:00:44;94687.94;;;6.86;91.12
9538;BME280;4807;48.024;11.726;2023-11-21T16:03:52;94690.69;;;6.93;90.95
9538;BME280;4807;48.024;11.726;2023-11-21T16:07:01;94692.56;;;6.99;90.81
9538;BME280;4807;48.024;11.726;2023-11-21T16:10:12;94693.03;;;7.02;91.32
9538;BME280;4807;48.024;11.726;2023-11-21T16:13:22;94697.59;;;7.08;91.34
9538;BME280;4807;48.024;11.726;2023-11-21T16:16:30;94704.41;;;7.17;90.62
9538;BME280;4807;48.024;11.726;2023-11-21T16:19:39;94707.06;;;7.17;89.65
9538;BME280;4807;48.024;11.726;2023-11-21T16:22:50;94709.56;;;7.04;91.08
9538;BME280;4807;48.024;11.726;2023-11-21T16:26:03;94713.47;;;7.08;90.93
9538;BME280;4807;48.024;11.726;2023-11-21T16:29:16;94716.41;;;6.99;91.41
9538;BME280;4807;48.024;11.726;2023-11-21T16:32:26;94730.34;;;7.07;92.35
9538;BME280;4807;48.024;11.726;2023-11-21T16:35:36;94732.06;;;7.15;91.98
9538;BME280;4807;48.024;11.726;2023-11-21T16:38:46;94728.00;;;7.12;93.01
9538;BME280;4807;48.024;11.726;2023-11-21T16:41:57;94727.72;;;7.07;92.51
9538;BME280;4807;48.024;11.726;2023-11-21T16:45:06;94732.50;;;6.97;91.95
9538;BME280;4807;48.024;11.726;2023-11-21T16:48:16;94733.59;;;6.88;92.07
9538;BME280;4807;48.024;11.726;2023-11-21T16:51:24;94746.78;;;6.73;92.52
9538;BME280;4807;48.024;11.726;2023-11-21T16:54:32;94752.28;;;6.72;93.85
9538;BME280;4807;48.024;11.726;2023-11-21T16:57:42;94758.66;;;6.63;94.83
9538;BME280;4807;48.024;11.726;2023-11-21T17:00:50;94755.63;;;6.66;95.19
9538;BME280;4807;48.024;11.726;2023-11-21T17:04:00;94761.22;;;6.71;94.84
9538;BME280;4807;48.024;11.726;2023-11-21T17:07:09;94764.69;;;6.57;95.73
9538;BME280;4807;48.024;11.726;2023-11-21T17:10:18;94763.03;;;6.56;96.24
9538;BME280;4807;48.024;11.726;2023-11-21T17:13:28;94770.59;;;6.59;95.98
9538;BME280;4807;48.024;11.726;2023-11-21T17:16:36;94766.69;;;6.55;96.63
9538;BME280;4807;48.024;11.726;2023-11-21T17:19:47;94772.41;;;6.58;96.19